sensor_id;sensor_type;location;lat;lon;timestamp;temperature;humidity
68511;SHT31;55512;50.102;19.958;2022-11-20T00:01:17;-1.61;69.60
68511;SHT31;55512;50.102;19.958;2022-11-20T00:03:50;-1.59;69.60
68511;SHT31;55512;50.102;19.958;2022-11-20T00:06:18;-1.58;69.60
68511;SHT31;55512;50.102;19.958;2022-11-20T00:08:45;-1.59;69.66
68511;SHT31;55512;50.102;19.958;2022-11-20T00:11:16;-1.60;69.70
68511;SHT31;55512;50.102;19.958;2022-11-20T00:13:48;-1.62;69.69
68511;SHT31;55512;50.102;19.958;2022-11-20T00:16:18;-1.65;69.70
68511;SHT31;55512;50.102;19.958;2022-11-20T00:18:47;-1.69;69.64
68511;SHT31;55512;50.102;19.958;2022-11-20T00:21:14;-1.74;69.69
68511;SHT31;55512;50.102;19.958;2022-11-20T00:23:45;-1.79;69.72
68511;SHT31;55512;50.102;19.958;2022-11-20T00:26:14;-1.82;69.80
68511;SHT31;55512;50.102;19.958;2022-11-20T00:28:43;-1.84;69.84
68511;SHT31;55512;50.102;19.958;2022-11-20T00:31:14;-1.86;69.89
68511;SHT31;55512;50.102;19.958;2022-11-20T00:33:41;-1.89;69.89
68511;SHT31;55512;50.102;19.958;2022-11-20T00:36:11;-1.91;69.90
68511;SHT31;55512;50.102;19.958;2022-11-20T00:38:43;-1.91;69.90
68511;SHT31;55512;50.102;19.958;2022-11-20T00:41:10;-1.90;69.90
68511;SHT31;55512;50.102;19.958;2022-11-20T00:43:39;-1.91;69.89
68511;SHT31;55512;50.102;19.958;2022-11-20T00:46:12;-1.93;69.84
68511;SHT31;55512;50.102;19.958;2022-11-20T00:48:41;-1.93;69.90
68511;SHT31;55512;50.102;19.958;2022-11-20T00:51:08;-1.92;69.90
68511;SHT31;55512;50.102;19.958;2022-11-20T00:53:37;-1.90;69.89
68511;SHT31;55512;50.102;19.958;2022-11-20T00:56:03;-1.91;69.89
68511;SHT31;55512;50.102;19.958;2022-11-20T00:58:36;-1.93;69.82
68511;SHT31;55512;50.102;19.958;2022-11-20T01:01:11;-1.95;69.79
68511;SHT31;55512;50.102;19.958;2022-11-20T01:03:39;-1.97;69.80
68511;SHT31;55512;50.102;19.958;2022-11-20T01:06:18;-1.99;69.81
68511;SHT31;55512;50.102;19.958;2022-11-20T01:08:47;-2.01;69.83
68511;SHT31;55512;50.102;19.958;2022-11-20T01:11:15;-2.03;69.81
68511;SHT31;55512;50.102;19.958;2022-11-20T01:13:44;-2.07;69.88
68511;SHT31;55512;50.102;19.958;2022-11-20T01:16:13;-2.09;69.90
68511;SHT31;55512;50.102;19.958;2022-11-20T01:18:45;-2.12;69.90
68511;SHT31;55512;50.102;19.958;2022-11-20T01:21:15;-2.17;69.91
68511;SHT31;55512;50.102;19.958;2022-11-20T01:23:47;-2.19;69.95
68511;SHT31;55512;50.102;19.958;2022-11-20T01:26:15;-2.19;70.00
68511;SHT31;55512;50.102;19.958;2022-11-20T01:28:46;-2.15;69.98
68511;SHT31;55512;50.102;19.958;2022-11-20T01:31:14;-2.15;69.88
68511;SHT31;55512;50.102;19.958;2022-11-20T01:33:47;-2.15;69.77
68511;SHT31;55512;50.102;19.958;2022-11-20T01:36:16;-2.16;69.70
68511;SHT31;55512;50.102;19.958;2022-11-20T01:38:44;-2.14;69.70
68511;SHT31;55512;50.102;19.958;2022-11-20T01:41:10;-2.16;69.78
68511;SHT31;55512;50.102;19.958;2022-11-20T01:44:00;-2.17;69.87
68511;SHT31;55512;50.102;19.958;2022-11-20T01:46:28;-2.16;69.99
68511;SHT31;55512;50.102;19.958;2022-11-20T01:51:50;-2.20;69.96
68511;SHT31;55512;50.102;19.958;2022-11-20T01:54:33;-2.25;69.97
68511;SHT31;55512;50.102;19.958;2022-11-20T01:57:06;-2.29;70.00
68511;SHT31;55512;50.102;19.958;2022-11-20T01:59:41;-2.32;70.09
68511;SHT31;55512;50.102;19.958;2022-11-20T02:02:12;-2.33;70.08
68511;SHT31;55512;50.102;19.958;2022-11-20T02:04:39;-2.35;69.97
68511;SHT31;55512;50.102;19.958;2022-11-20T02:07:04;-2.37;69.82
68511;SHT31;55512;50.102;19.958;2022-11-20T02:09:30;-2.37;69.83
68511;SHT31;55512;50.102;19.958;2022-11-20T02:11:56;-2.39;69.65
68511;SHT31;55512;50.102;19.958;2022-11-20T02:14:23;-2.40;69.60
68511;SHT31;55512;50.102;19.958;2022-11-20T02:16:51;-2.42;69.50
68511;SHT31;55512;50.102;19.958;2022-11-20T02:19:27;-2.42;69.57
68511;SHT31;55512;50.102;19.958;2022-11-20T02:22:14;-2.41;69.60
68511;SHT31;55512;50.102;19.958;2022-11-20T02:24:47;-2.42;69.54
68511;SHT31;55512;50.102;19.958;2022-11-20T02:27:15;-2.45;69.50
68511;SHT31;55512;50.102;19.958;2022-11-20T02:32:30;-2.48;69.37
68511;SHT31;55512;50.102;19.958;2022-11-20T02:35:08;-2.51;69.28
68511;SHT31;55512;50.102;19.958;2022-11-20T02:37:56;-2.53;69.35
68511;SHT31;55512;50.102;19.958;2022-11-20T02:40:26;-2.58;69.43
68511;SHT31;55512;50.102;19.958;2022-11-20T02:42:52;-2.62;69.61
68511;SHT31;55512;50.102;19.958;2022-11-20T02:45:18;-2.65;69.85
68511;SHT31;55512;50.102;19.958;2022-11-20T02:47:44;-2.67;69.96
68511;SHT31;55512;50.102;19.958;2022-11-20T02:50:10;-2.72;69.99
68511;SHT31;55512;50.102;19.958;2022-11-20T02:52:38;-2.78;70.06
68511;SHT31;55512;50.102;19.958;2022-11-20T02:55:03;-2.81;70.12
68511;SHT31;55512;50.102;19.958;2022-11-20T02:57:30;-2.78;70.22
68511;SHT31;55512;50.102;19.958;2022-11-20T02:59:55;-2.72;70.24
68511;SHT31;55512;50.102;19.958;2022-11-20T03:02:21;-2.67;70.24
68511;SHT31;55512;50.102;19.958;2022-11-20T03:04:46;-2.63;70.29
68511;SHT31;55512;50.102;19.958;2022-11-20T03:07:12;-2.58;70.36
68511;SHT31;55512;50.102;19.958;2022-11-20T03:09:37;-2.53;70.40
68511;SHT31;55512;50.102;19.958;2022-11-20T03:12:03;-2.47;70.27
68511;SHT31;55512;50.102;19.958;2022-11-20T03:14:28;-2.46;70.11
68511;SHT31;55512;50.102;19.958;2022-11-20T03:16:54;-2.50;69.82
68511;SHT31;55512;50.102;19.958;2022-11-20T03:19:21;-2.56;69.80
68511;SHT31;55512;50.102;19.958;2022-11-20T03:21:46;-2.61;69.80
68511;SHT31;55512;50.102;19.958;2022-11-20T03:24:12;-2.65;69.77
68511;SHT31;55512;50.102;19.958;2022-11-20T03:26:38;-2.69;69.72
68511;SHT31;55512;50.102;19.958;2022-11-20T03:29:04;-2.72;69.62
68511;SHT31;55512;50.102;19.958;2022-11-20T03:31:31;-2.77;69.60
68511;SHT31;55512;50.102;19.958;2022-11-20T03:34:00;-2.81;69.59
68511;SHT31;55512;50.102;19.958;2022-11-20T03:36:26;-2.87;69.68
68511;SHT31;55512;50.102;19.958;2022-11-20T03:38:55;-2.92;69.87
68511;SHT31;55512;50.102;19.958;2022-11-20T03:41:40;-2.96;69.90
68511;SHT31;55512;50.102;19.958;2022-11-20T03:44:08;-3.01;69.90
68511;SHT31;55512;50.102;19.958;2022-11-20T03:46:35;-3.03;69.95
68511;SHT31;55512;50.102;19.958;2022-11-20T03:49:01;-3.01;69.99
68511;SHT31;55512;50.102;19.958;2022-11-20T03:51:31;-2.98;70.00
68511;SHT31;55512;50.102;19.958;2022-11-20T03:54:04;-2.95;70.01
68511;SHT31;55512;50.102;19.958;2022-11-20T03:56:33;-2.89;70.00
68511;SHT31;55512;50.102;19.958;2022-11-20T03:59:02;-2.85;69.92
68511;SHT31;55512;50.102;19.958;2022-11-20T04:01:30;-2.84;69.89
68511;SHT31;55512;50.102;19.958;2022-11-20T04:03:58;-2.81;69.92
68511;SHT31;55512;50.102;19.958;2022-11-20T04:06:25;-2.79;69.91
68511;SHT31;55512;50.102;19.958;2022-11-20T04:08:54;-2.80;69.82
68511;SHT31;55512;50.102;19.958;2022-11-20T04:11:23;-2.79;69.94
68511;SHT31;55512;50.102;19.958;2022-11-20T04:13:52;-2.80;69.98
68511;SHT31;55512;50.102;19.958;2022-11-20T04:16:20;-2.81;70.03
68511;SHT31;55512;50.102;19.958;2022-11-20T04:18:55;-2.83;70.00
68511;SHT31;55512;50.102;19.958;2022-11-20T04:21:23;-2.84;70.01
68511;SHT31;55512;50.102;19.958;2022-11-20T04:23:51;-2.84;70.00
68511;SHT31;55512;50.102;19.958;2022-11-20T04:26:18;-2.84;70.08
68511;SHT31;55512;50.102;19.958;2022-11-20T04:28:45;-2.84;69.96
68511;SHT31;55512;50.102;19.958;2022-11-20T04:31:11;-2.83;69.90
68511;SHT31;55512;50.102;19.958;2022-11-20T04:33:42;-2.81;69.84
68511;SHT31;55512;50.102;19.958;2022-11-20T04:38:44;-2.83;70.00
68511;SHT31;55512;50.102;19.958;2022-11-20T04:41:13;-2.86;70.00
68511;SHT31;55512;50.102;19.958;2022-11-20T04:43:41;-2.90;70.00
68511;SHT31;55512;50.102;19.958;2022-11-20T04:46:13;-2.95;70.00
68511;SHT31;55512;50.102;19.958;2022-11-20T04:48:39;-2.99;70.00
68511;SHT31;55512;50.102;19.958;2022-11-20T04:51:05;-3.06;70.01
68511;SHT31;55512;50.102;19.958;2022-11-20T04:53:31;-3.11;69.99
68511;SHT31;55512;50.102;19.958;2022-11-20T04:56:00;-3.16;69.98
68511;SHT31;55512;50.102;19.958;2022-11-20T04:58:28;-3.19;70.05
68511;SHT31;55512;50.102;19.958;2022-11-20T05:01:00;-3.20;70.10
68511;SHT31;55512;50.102;19.958;2022-11-20T05:03:34;-3.23;70.09
68511;SHT31;55512;50.102;19.958;2022-11-20T05:06:01;-3.24;70.07
68511;SHT31;55512;50.102;19.958;2022-11-20T05:08:29;-3.27;70.10
68511;SHT31;55512;50.102;19.958;2022-11-20T05:11:02;-3.31;70.09
68511;SHT31;55512;50.102;19.958;2022-11-20T05:13:39;-3.33;70.01
68511;SHT31;55512;50.102;19.958;2022-11-20T05:16:06;-3.32;70.00
68511;SHT31;55512;50.102;19.958;2022-11-20T05:18:35;-3.28;70.00
68511;SHT31;55512;50.102;19.958;2022-11-20T05:21:01;-3.24;69.99
68511;SHT31;55512;50.102;19.958;2022-11-20T05:23:28;-3.18;69.83
68511;SHT31;55512;50.102;19.958;2022-11-20T05:25:56;-3.15;69.74
68511;SHT31;55512;50.102;19.958;2022-11-20T05:28:23;-3.12;69.74
68511;SHT31;55512;50.102;19.958;2022-11-20T05:30:50;-3.13;69.69
68511;SHT31;55512;50.102;19.958;2022-11-20T05:33:16;-3.14;69.70
68511;SHT31;55512;50.102;19.958;2022-11-20T05:35:42;-3.14;69.73
68511;SHT31;55512;50.102;19.958;2022-11-20T05:38:08;-3.15;69.81
68511;SHT31;55512;50.102;19.958;2022-11-20T05:40:34;-3.17;69.90
68511;SHT31;55512;50.102;19.958;2022-11-20T05:43:00;-3.21;69.90
68511;SHT31;55512;50.102;19.958;2022-11-20T05:45:26;-3.23;69.92
68511;SHT31;55512;50.102;19.958;2022-11-20T05:47:51;-3.27;69.90
68511;SHT31;55512;50.102;19.958;2022-11-20T05:50:17;-3.28;70.01
68511;SHT31;55512;50.102;19.958;2022-11-20T05:52:42;-3.28;70.06
68511;SHT31;55512;50.102;19.958;2022-11-20T05:55:08;-3.29;70.16
68511;SHT31;55512;50.102;19.958;2022-11-20T05:57:34;-3.30;70.23
68511;SHT31;55512;50.102;19.958;2022-11-20T06:00:00;-3.30;70.19
68511;SHT31;55512;50.102;19.958;2022-11-20T06:02:25;-3.30;70.10
68511;SHT31;55512;50.102;19.958;2022-11-20T06:04:51;-3.28;70.06
68511;SHT31;55512;50.102;19.958;2022-11-20T06:07:16;-3.26;69.90
68511;SHT31;55512;50.102;19.958;2022-11-20T06:09:42;-3.24;69.84
68511;SHT31;55512;50.102;19.958;2022-11-20T06:12:07;-3.22;69.80
68511;SHT31;55512;50.102;19.958;2022-11-20T06:14:33;-3.22;69.72
68511;SHT31;55512;50.102;19.958;2022-11-20T06:16:59;-3.23;69.70
68511;SHT31;55512;50.102;19.958;2022-11-20T06:19:25;-3.23;69.78
68511;SHT31;55512;50.102;19.958;2022-11-20T06:21:50;-3.22;69.83
68511;SHT31;55512;50.102;19.958;2022-11-20T06:24:16;-3.24;69.90
68511;SHT31;55512;50.102;19.958;2022-11-20T06:26:42;-3.25;69.98
68511;SHT31;55512;50.102;19.958;2022-11-20T06:29:08;-3.28;69.91
68511;SHT31;55512;50.102;19.958;2022-11-20T06:31:33;-3.31;69.90
68511;SHT31;55512;50.102;19.958;2022-11-20T06:34:02;-3.34;69.90
68511;SHT31;55512;50.102;19.958;2022-11-20T06:36:31;-3.36;69.90
68511;SHT31;55512;50.102;19.958;2022-11-20T06:38:57;-3.40;69.99
68511;SHT31;55512;50.102;19.958;2022-11-20T06:41:22;-3.40;70.05
68511;SHT31;55512;50.102;19.958;2022-11-20T06:43:48;-3.39;70.17
68511;SHT31;55512;50.102;19.958;2022-11-20T06:46:15;-3.38;70.27
68511;SHT31;55512;50.102;19.958;2022-11-20T06:48:42;-3.32;70.33
68511;SHT31;55512;50.102;19.958;2022-11-20T06:51:08;-3.25;70.37
68511;SHT31;55512;50.102;19.958;2022-11-20T06:53:34;-3.17;70.25
68511;SHT31;55512;50.102;19.958;2022-11-20T06:56:01;-3.10;70.20
68511;SHT31;55512;50.102;19.958;2022-11-20T06:58:27;-3.02;70.17
68511;SHT31;55512;50.102;19.958;2022-11-20T07:01:01;-2.96;70.05
68511;SHT31;55512;50.102;19.958;2022-11-20T07:03:36;-2.89;70.00
68511;SHT31;55512;50.102;19.958;2022-11-20T07:06:03;-2.82;70.01
68511;SHT31;55512;50.102;19.958;2022-11-20T07:08:30;-2.77;70.00
68511;SHT31;55512;50.102;19.958;2022-11-20T07:10:57;-2.73;70.09
68511;SHT31;55512;50.102;19.958;2022-11-20T07:13:28;-2.70;70.10
68511;SHT31;55512;50.102;19.958;2022-11-20T07:15:54;-2.69;70.10
68511;SHT31;55512;50.102;19.958;2022-11-20T07:18:25;-2.69;70.10
68511;SHT31;55512;50.102;19.958;2022-11-20T07:20:50;-2.67;70.16
68511;SHT31;55512;50.102;19.958;2022-11-20T07:23:16;-2.64;70.18
68511;SHT31;55512;50.102;19.958;2022-11-20T07:25:41;-2.61;70.20
68511;SHT31;55512;50.102;19.958;2022-11-20T07:28:07;-2.56;70.21
68511;SHT31;55512;50.102;19.958;2022-11-20T07:30:33;-2.51;70.20
68511;SHT31;55512;50.102;19.958;2022-11-20T07:32:58;-2.47;70.20
68511;SHT31;55512;50.102;19.958;2022-11-20T07:35:24;-2.44;70.27
68511;SHT31;55512;50.102;19.958;2022-11-20T07:37:50;-2.36;70.30
68511;SHT31;55512;50.102;19.958;2022-11-20T07:40:16;-2.28;70.30
68511;SHT31;55512;50.102;19.958;2022-11-20T07:42:52;-2.17;70.30
68511;SHT31;55512;50.102;19.958;2022-11-20T07:45:20;-2.05;70.21
68511;SHT31;55512;50.102;19.958;2022-11-20T07:47:48;-1.90;70.20
68511;SHT31;55512;50.102;19.958;2022-11-20T07:50:13;-1.74;70.15
68511;SHT31;55512;50.102;19.958;2022-11-20T07:52:42;-1.61;70.11
68511;SHT31;55512;50.102;19.958;2022-11-20T07:55:08;-1.51;70.00
68511;SHT31;55512;50.102;19.958;2022-11-20T07:57:35;-1.45;70.00
68511;SHT31;55512;50.102;19.958;2022-11-20T08:00:01;-1.41;69.94
68511;SHT31;55512;50.102;19.958;2022-11-20T08:02:28;-1.36;69.90
68511;SHT31;55512;50.102;19.958;2022-11-20T08:04:53;-1.32;69.90
68511;SHT31;55512;50.102;19.958;2022-11-20T08:07:19;-1.29;69.89
68511;SHT31;55512;50.102;19.958;2022-11-20T08:09:44;-1.28;69.88
68511;SHT31;55512;50.102;19.958;2022-11-20T08:12:16;-1.26;69.90
68511;SHT31;55512;50.102;19.958;2022-11-20T08:15:03;-1.24;69.99
68511;SHT31;55512;50.102;19.958;2022-11-20T08:17:31;-1.19;70.01
68511;SHT31;55512;50.102;19.958;2022-11-20T08:19:56;-1.16;70.01
68511;SHT31;55512;50.102;19.958;2022-11-20T08:22:22;-1.14;70.03
68511;SHT31;55512;50.102;19.958;2022-11-20T08:24:47;-1.13;70.00
68511;SHT31;55512;50.102;19.958;2022-11-20T08:27:13;-1.13;70.07
68511;SHT31;55512;50.102;19.958;2022-11-20T08:29:39;-1.10;70.13
68511;SHT31;55512;50.102;19.958;2022-11-20T08:32:04;-1.06;70.13
68511;SHT31;55512;50.102;19.958;2022-11-20T08:34:30;-1.02;70.10
68511;SHT31;55512;50.102;19.958;2022-11-20T08:36:55;-0.94;70.09
68511;SHT31;55512;50.102;19.958;2022-11-20T08:39:20;-0.88;70.02
68511;SHT31;55512;50.102;19.958;2022-11-20T08:41:46;-0.81;70.00
68511;SHT31;55512;50.102;19.958;2022-11-20T08:44:11;-0.76;69.90
68511;SHT31;55512;50.102;19.958;2022-11-20T08:46:38;-0.75;69.80
68511;SHT31;55512;50.102;19.958;2022-11-20T08:49:06;-0.72;69.87
68511;SHT31;55512;50.102;19.958;2022-11-20T08:51:34;-0.66;69.88
68511;SHT31;55512;50.102;19.958;2022-11-20T08:54:00;-0.62;69.81
68511;SHT31;55512;50.102;19.958;2022-11-20T08:56:27;-0.56;69.87
68511;SHT31;55512;50.102;19.958;2022-11-20T08:58:53;-0.49;69.84
68511;SHT31;55512;50.102;19.958;2022-11-20T09:01:19;-0.45;69.80
68511;SHT31;55512;50.102;19.958;2022-11-20T09:03:46;-0.40;69.81
68511;SHT31;55512;50.102;19.958;2022-11-20T09:06:12;-0.40;69.83
68511;SHT31;55512;50.102;19.958;2022-11-20T09:08:38;-0.41;69.97
68511;SHT31;55512;50.102;19.958;2022-11-20T09:11:05;-0.39;70.02
68511;SHT31;55512;50.102;19.958;2022-11-20T09:13:31;-0.33;70.00
68511;SHT31;55512;50.102;19.958;2022-11-20T09:16:00;-0.21;69.97
68511;SHT31;55512;50.102;19.958;2022-11-20T09:18:32;-0.13;69.90
68511;SHT31;55512;50.102;19.958;2022-11-20T09:21:01;-0.11;69.86
68511;SHT31;55512;50.102;19.958;2022-11-20T09:23:33;-0.12;69.90
68511;SHT31;55512;50.102;19.958;2022-11-20T09:26:10;-0.10;69.96
68511;SHT31;55512;50.102;19.958;2022-11-20T09:28:38;-0.06;70.00
68511;SHT31;55512;50.102;19.958;2022-11-20T09:31:08;-0.03;70.03
68511;SHT31;55512;50.102;19.958;2022-11-20T09:33:44;0.03;70.10
68511;SHT31;55512;50.102;19.958;2022-11-20T09:36:10;0.08;70.11
68511;SHT31;55512;50.102;19.958;2022-11-20T09:38:35;0.12;70.10
68511;SHT31;55512;50.102;19.958;2022-11-20T09:41:05;0.15;70.11
68511;SHT31;55512;50.102;19.958;2022-11-20T09:49:25;0.27;70.15
68511;SHT31;55512;50.102;19.958;2022-11-20T09:55:10;0.44;70.15
68511;SHT31;55512;50.102;19.958;2022-11-20T09:57:40;0.49;70.09
68511;SHT31;55512;50.102;19.958;2022-11-20T10:00:14;0.56;70.07
68511;SHT31;55512;50.102;19.958;2022-11-20T10:05:19;0.71;70.12
68511;SHT31;55512;50.102;19.958;2022-11-20T10:16:06;0.92;70.02
68511;SHT31;55512;50.102;19.958;2022-11-20T10:31:06;1.16;69.59
68511;SHT31;55512;50.102;19.958;2022-11-20T10:33:40;1.24;69.59
68511;SHT31;55512;50.102;19.958;2022-11-20T10:36:17;1.29;69.51
68511;SHT31;55512;50.102;19.958;2022-11-20T10:39:01;1.38;69.53
68511;SHT31;55512;50.102;19.958;2022-11-20T10:41:40;1.48;69.29
68511;SHT31;55512;50.102;19.958;2022-11-20T10:44:20;1.57;69.09
68511;SHT31;55512;50.102;19.958;2022-11-20T10:47:13;1.66;68.89
68511;SHT31;55512;50.102;19.958;2022-11-20T10:49:43;1.72;68.71
68511;SHT31;55512;50.102;19.958;2022-11-20T10:57:26;1.99;68.39
68511;SHT31;55512;50.102;19.958;2022-11-20T11:02:53;2.13;68.50
68511;SHT31;55512;50.102;19.958;2022-11-20T11:08:12;2.15;68.29
68511;SHT31;55512;50.102;19.958;2022-11-20T11:13:25;2.17;68.11
68511;SHT31;55512;50.102;19.958;2022-11-20T11:15:54;2.23;68.10
68511;SHT31;55512;50.102;19.958;2022-11-20T11:18:24;2.31;68.11
68511;SHT31;55512;50.102;19.958;2022-11-20T11:20:55;2.38;68.07
68511;SHT31;55512;50.102;19.958;2022-11-20T11:25:59;2.45;67.70
68511;SHT31;55512;50.102;19.958;2022-11-20T11:28:28;2.52;67.69
68511;SHT31;55512;50.102;19.958;2022-11-20T11:30:54;2.56;67.27
68511;SHT31;55512;50.102;19.958;2022-11-20T11:35:55;2.67;67.19
68511;SHT31;55512;50.102;19.958;2022-11-20T11:41:01;2.74;66.94
68511;SHT31;55512;50.102;19.958;2022-11-20T11:43:30;2.78;66.87
68511;SHT31;55512;50.102;19.958;2022-11-20T11:46:37;2.80;66.73
68511;SHT31;55512;50.102;19.958;2022-11-20T11:54:44;2.85;66.37
68511;SHT31;55512;50.102;19.958;2022-11-20T11:57:26;2.83;66.21
68511;SHT31;55512;50.102;19.958;2022-11-20T12:00:12;2.85;66.20
68511;SHT31;55512;50.102;19.958;2022-11-20T12:13:39;3.10;65.49
68511;SHT31;55512;50.102;19.958;2022-11-20T12:16:13;3.08;65.36
68511;SHT31;55512;50.102;19.958;2022-11-20T12:18:44;3.04;65.18
68511;SHT31;55512;50.102;19.958;2022-11-20T12:21:19;3.00;65.02
68511;SHT31;55512;50.102;19.958;2022-11-20T12:23:59;2.99;64.96
68511;SHT31;55512;50.102;19.958;2022-11-20T12:30:01;2.99;65.04
68511;SHT31;55512;50.102;19.958;2022-11-20T12:41:49;2.97;64.92
68511;SHT31;55512;50.102;19.958;2022-11-20T12:59:30;3.18;64.66
68511;SHT31;55512;50.102;19.958;2022-11-20T13:05:37;3.22;64.36
68511;SHT31;55512;50.102;19.958;2022-11-20T13:08:21;3.20;64.37
68511;SHT31;55512;50.102;19.958;2022-11-20T13:16:10;3.17;64.63
68511;SHT31;55512;50.102;19.958;2022-11-20T13:18:44;3.17;64.68
68511;SHT31;55512;50.102;19.958;2022-11-20T13:21:53;3.17;64.70
68511;SHT31;55512;50.102;19.958;2022-11-20T13:24:49;3.16;64.70
68511;SHT31;55512;50.102;19.958;2022-11-20T13:29:27;3.19;64.87
68511;SHT31;55512;50.102;19.958;2022-11-20T13:32:01;3.24;64.87
68511;SHT31;55512;50.102;19.958;2022-11-20T13:34:29;3.35;64.89
68511;SHT31;55512;50.102;19.958;2022-11-20T13:36:56;3.52;64.86
68511;SHT31;55512;50.102;19.958;2022-11-20T13:39:31;3.63;64.80
68511;SHT31;55512;50.102;19.958;2022-11-20T13:44:39;3.83;64.55
68511;SHT31;55512;50.102;19.958;2022-11-20T13:47:19;3.91;64.26
68511;SHT31;55512;50.102;19.958;2022-11-20T13:49:50;3.96;63.84
68511;SHT31;55512;50.102;19.958;2022-11-20T13:52:37;4.02;63.79
68511;SHT31;55512;50.102;19.958;2022-11-20T14:00:47;4.11;63.83
68511;SHT31;55512;50.102;19.958;2022-11-20T14:03:23;4.06;63.92
68511;SHT31;55512;50.102;19.958;2022-11-20T14:05:55;3.98;63.91
68511;SHT31;55512;50.102;19.958;2022-11-20T14:08:31;3.87;63.98
68511;SHT31;55512;50.102;19.958;2022-11-20T14:11:05;3.77;64.05
68511;SHT31;55512;50.102;19.958;2022-11-20T14:13:50;3.72;64.18
68511;SHT31;55512;50.102;19.958;2022-11-20T14:16:41;3.74;64.30
68511;SHT31;55512;50.102;19.958;2022-11-20T14:21:51;3.85;64.57
68511;SHT31;55512;50.102;19.958;2022-11-20T14:24:31;3.88;64.55
68511;SHT31;55512;50.102;19.958;2022-11-20T14:26:57;3.92;64.57
68511;SHT31;55512;50.102;19.958;2022-11-20T14:29:44;3.86;64.53
68511;SHT31;55512;50.102;19.958;2022-11-20T14:32:10;3.74;64.61
68511;SHT31;55512;50.102;19.958;2022-11-20T14:34:40;3.61;64.66
68511;SHT31;55512;50.102;19.958;2022-11-20T14:37:11;3.48;64.81
68511;SHT31;55512;50.102;19.958;2022-11-20T14:39:42;3.33;64.96
68511;SHT31;55512;50.102;19.958;2022-11-20T14:42:23;3.23;65.10
68511;SHT31;55512;50.102;19.958;2022-11-20T14:44:55;3.10;65.16
68511;SHT31;55512;50.102;19.958;2022-11-20T14:47:25;2.97;65.30
68511;SHT31;55512;50.102;19.958;2022-11-20T14:49:54;2.85;65.46
68511;SHT31;55512;50.102;19.958;2022-11-20T14:52:22;2.72;65.61
68511;SHT31;55512;50.102;19.958;2022-11-20T14:54:55;2.62;65.81
68511;SHT31;55512;50.102;19.958;2022-11-20T14:57:29;2.55;65.90
68511;SHT31;55512;50.102;19.958;2022-11-20T15:02:54;2.37;66.00
68511;SHT31;55512;50.102;19.958;2022-11-20T15:05:21;2.31;66.06
68511;SHT31;55512;50.102;19.958;2022-11-20T15:07:52;2.23;66.06
68511;SHT31;55512;50.102;19.958;2022-11-20T15:10:32;2.12;66.02
68511;SHT31;55512;50.102;19.958;2022-11-20T15:13:13;2.03;66.10
68511;SHT31;55512;50.102;19.958;2022-11-20T15:15:48;1.92;66.24
68511;SHT31;55512;50.102;19.958;2022-11-20T15:18:20;1.85;66.38
68511;SHT31;55512;50.102;19.958;2022-11-20T15:20:51;1.77;66.44
68511;SHT31;55512;50.102;19.958;2022-11-20T15:23:19;1.70;66.56
68511;SHT31;55512;50.102;19.958;2022-11-20T15:25:45;1.63;66.71
68511;SHT31;55512;50.102;19.958;2022-11-20T15:28:19;1.57;66.87
68511;SHT31;55512;50.102;19.958;2022-11-20T15:30:50;1.52;67.03
68511;SHT31;55512;50.102;19.958;2022-11-20T15:33:16;1.49;67.17
68511;SHT31;55512;50.102;19.958;2022-11-20T15:35:42;1.47;67.31
68511;SHT31;55512;50.102;19.958;2022-11-20T15:38:09;1.43;67.50
68511;SHT31;55512;50.102;19.958;2022-11-20T15:40:34;1.45;67.73
68511;SHT31;55512;50.102;19.958;2022-11-20T15:43:00;1.48;67.85
68511;SHT31;55512;50.102;19.958;2022-11-20T15:45:50;1.51;67.90
68511;SHT31;55512;50.102;19.958;2022-11-20T15:48:25;1.53;67.94
68511;SHT31;55512;50.102;19.958;2022-11-20T15:53:35;1.60;68.03
68511;SHT31;55512;50.102;19.958;2022-11-20T15:56:02;1.64;68.10
68511;SHT31;55512;50.102;19.958;2022-11-20T15:58:28;1.64;68.11
68511;SHT31;55512;50.102;19.958;2022-11-20T16:00:54;1.66;68.26
68511;SHT31;55512;50.102;19.958;2022-11-20T16:03:21;1.66;68.43
68511;SHT31;55512;50.102;19.958;2022-11-20T16:05:47;1.68;68.49
68511;SHT31;55512;50.102;19.958;2022-11-20T16:08:13;1.68;68.63
68511;SHT31;55512;50.102;19.958;2022-11-20T16:10:39;1.67;68.70
68511;SHT31;55512;50.102;19.958;2022-11-20T16:13:13;1.63;68.73
68511;SHT31;55512;50.102;19.958;2022-11-20T16:16:05;1.62;68.90
68511;SHT31;55512;50.102;19.958;2022-11-20T16:18:36;1.62;68.96
68511;SHT31;55512;50.102;19.958;2022-11-20T16:21:02;1.61;69.01
68511;SHT31;55512;50.102;19.958;2022-11-20T16:23:27;1.64;69.10
68511;SHT31;55512;50.102;19.958;2022-11-20T16:25:53;1.67;69.19
68511;SHT31;55512;50.102;19.958;2022-11-20T16:28:19;1.68;69.14
68511;SHT31;55512;50.102;19.958;2022-11-20T16:30:45;1.69;69.15
68511;SHT31;55512;50.102;19.958;2022-11-20T16:33:12;1.72;69.29
68511;SHT31;55512;50.102;19.958;2022-11-20T16:35:42;1.73;69.24
68511;SHT31;55512;50.102;19.958;2022-11-20T16:38:08;1.71;69.29
68511;SHT31;55512;50.102;19.958;2022-11-20T16:40:34;1.69;69.33
68511;SHT31;55512;50.102;19.958;2022-11-20T16:43:10;1.69;69.32
68511;SHT31;55512;50.102;19.958;2022-11-20T16:45:42;1.68;69.40
68511;SHT31;55512;50.102;19.958;2022-11-20T16:48:13;1.66;69.40
68511;SHT31;55512;50.102;19.958;2022-11-20T16:50:47;1.65;69.49
68511;SHT31;55512;50.102;19.958;2022-11-20T16:53:16;1.62;69.52
68511;SHT31;55512;50.102;19.958;2022-11-20T16:55:44;1.59;69.62
68511;SHT31;55512;50.102;19.958;2022-11-20T16:58:11;1.62;69.70
68511;SHT31;55512;50.102;19.958;2022-11-20T17:00:38;1.66;69.70
68511;SHT31;55512;50.102;19.958;2022-11-20T17:03:05;1.71;69.70
68511;SHT31;55512;50.102;19.958;2022-11-20T17:05:32;1.75;69.70
68511;SHT31;55512;50.102;19.958;2022-11-20T17:07:58;1.75;69.70
68511;SHT31;55512;50.102;19.958;2022-11-20T17:10:25;1.77;69.80
68511;SHT31;55512;50.102;19.958;2022-11-20T17:12:50;1.79;69.80
68511;SHT31;55512;50.102;19.958;2022-11-20T17:15:16;1.81;69.84
68511;SHT31;55512;50.102;19.958;2022-11-20T17:17:42;1.84;69.88
68511;SHT31;55512;50.102;19.958;2022-11-20T17:20:08;1.87;69.87
68511;SHT31;55512;50.102;19.958;2022-11-20T17:22:36;1.86;69.83
68511;SHT31;55512;50.102;19.958;2022-11-20T17:25:02;1.87;69.90
68511;SHT31;55512;50.102;19.958;2022-11-20T17:27:29;1.87;69.90
68511;SHT31;55512;50.102;19.958;2022-11-20T17:29:54;1.87;69.98
68511;SHT31;55512;50.102;19.958;2022-11-20T17:32:21;1.87;70.04
68511;SHT31;55512;50.102;19.958;2022-11-20T17:34:47;1.88;70.10
68511;SHT31;55512;50.102;19.958;2022-11-20T17:37:12;1.92;70.09
68511;SHT31;55512;50.102;19.958;2022-11-20T17:39:38;1.93;70.10
68511;SHT31;55512;50.102;19.958;2022-11-20T17:42:04;1.93;70.09
68511;SHT31;55512;50.102;19.958;2022-11-20T17:44:48;1.92;70.10
68511;SHT31;55512;50.102;19.958;2022-11-20T17:47:13;1.95;70.09
68511;SHT31;55512;50.102;19.958;2022-11-20T17:49:40;1.93;69.99
68511;SHT31;55512;50.102;19.958;2022-11-20T17:52:05;1.89;69.96